sensor_id;sensor_type;location;lat;lon;timestamp;P1;durP1;ratioP1;P2;durP2;ratioP2
74231;SDS011;62590;52.430;4.902;2022-11-10T00:01:46;23.92;;;3.08;;
74231;SDS011;62590;52.430;4.902;2022-11-10T00:04:12;15.82;;;2.78;;
74231;SDS011;62590;52.430;4.902;2022-11-10T00:06:37;14.90;;;2.92;;
74231;SDS011;62590;52.430;4.902;2022-11-10T00:09:05;24.52;;;2.70;;
74231;SDS011;62590;52.430;4.902;2022-11-10T00:11:31;16.08;;;2.45;;
74231;SDS011;62590;52.430;4.902;2022-11-10T00:13:57;28.92;;;3.47;;
74231;SDS011;62590;52.430;4.902;2022-11-10T00:16:41;19.33;;;4.35;;
74231;SDS011;62590;52.430;4.902;2022-11-10T00:19:24;15.40;;;2.17;;
74231;SDS011;62590;52.430;4.902;2022-11-10T00:21:50;15.95;;;1.98;;
74231;SDS011;62590;52.430;4.902;2022-11-10T00:24:16;15.60;;;2.38;;
74231;SDS011;62590;52.430;4.902;2022-11-10T00:26:42;14.25;;;1.95;;
74231;SDS011;62590;52.430;4.902;2022-11-10T00:29:07;14.52;;;2.42;;
74231;SDS011;62590;52.430;4.902;2022-11-10T00:31:33;15.13;;;2.15;;
74231;SDS011;62590;52.430;4.902;2022-11-10T00:33:58;15.80;;;2.13;;
74231;SDS011;62590;52.430;4.902;2022-11-10T00:36:23;20.40;;;2.65;;
74231;SDS011;62590;52.430;4.902;2022-11-10T00:38:49;14.10;;;2.00;;
74231;SDS011;62590;52.430;4.902;2022-11-10T00:41:15;15.50;;;2.40;;
74231;SDS011;62590;52.430;4.902;2022-11-10T00:43:40;27.00;;;3.83;;
74231;SDS011;62590;52.430;4.902;2022-11-10T00:46:06;27.75;;;3.13;;
74231;SDS011;62590;52.430;4.902;2022-11-10T00:48:31;18.55;;;1.98;;
74231;SDS011;62590;52.430;4.902;2022-11-10T00:50:56;15.48;;;2.05;;
74231;SDS011;62590;52.430;4.902;2022-11-10T00:53:22;32.05;;;4.03;;
74231;SDS011;62590;52.430;4.902;2022-11-10T00:55:47;12.68;;;2.20;;
74231;SDS011;62590;52.430;4.902;2022-11-10T00:58:13;22.30;;;2.08;;
74231;SDS011;62590;52.430;4.902;2022-11-10T01:00:39;15.85;;;2.55;;
74231;SDS011;62590;52.430;4.902;2022-11-10T01:03:05;31.48;;;2.60;;
74231;SDS011;62590;52.430;4.902;2022-11-10T01:05:30;22.95;;;3.35;;
74231;SDS011;62590;52.430;4.902;2022-11-10T01:07:59;19.83;;;2.78;;
74231;SDS011;62590;52.430;4.902;2022-11-10T01:10:24;21.48;;;2.20;;
74231;SDS011;62590;52.430;4.902;2022-11-10T01:12:50;17.75;;;3.00;;
74231;SDS011;62590;52.430;4.902;2022-11-10T01:15:16;26.83;;;3.13;;
74231;SDS011;62590;52.430;4.902;2022-11-10T01:17:41;26.88;;;2.72;;
74231;SDS011;62590;52.430;4.902;2022-11-10T01:20:06;26.83;;;3.35;;
74231;SDS011;62590;52.430;4.902;2022-11-10T01:22:33;23.75;;;2.85;;
74231;SDS011;62590;52.430;4.902;2022-11-10T01:24:59;23.85;;;3.08;;
74231;SDS011;62590;52.430;4.902;2022-11-10T01:27:24;21.65;;;3.15;;
74231;SDS011;62590;52.430;4.902;2022-11-10T01:29:50;15.88;;;2.30;;
74231;SDS011;62590;52.430;4.902;2022-11-10T01:32:15;18.65;;;3.63;;
74231;SDS011;62590;52.430;4.902;2022-11-10T01:34:40;23.70;;;2.75;;
74231;SDS011;62590;52.430;4.902;2022-11-10T01:37:06;16.77;;;2.50;;
74231;SDS011;62590;52.430;4.902;2022-11-10T01:39:31;24.88;;;2.80;;
74231;SDS011;62590;52.430;4.902;2022-11-10T01:41:56;24.27;;;2.63;;
74231;SDS011;62590;52.430;4.902;2022-11-10T01:44:22;16.30;;;2.35;;
74231;SDS011;62590;52.430;4.902;2022-11-10T01:46:49;16.88;;;3.03;;
74231;SDS011;62590;52.430;4.902;2022-11-10T01:49:16;21.55;;;3.08;;
74231;SDS011;62590;52.430;4.902;2022-11-10T01:51:52;13.88;;;2.25;;
74231;SDS011;62590;52.430;4.902;2022-11-10T01:54:23;30.02;;;3.00;;
74231;SDS011;62590;52.430;4.902;2022-11-10T01:56:51;22.92;;;2.75;;
74231;SDS011;62590;52.430;4.902;2022-11-10T01:59:23;18.80;;;2.53;;
74231;SDS011;62590;52.430;4.902;2022-11-10T02:01:52;23.77;;;3.38;;
74231;SDS011;62590;52.430;4.902;2022-11-10T02:04:21;26.20;;;3.75;;
74231;SDS011;62590;52.430;4.902;2022-11-10T02:06:47;25.77;;;3.40;;
74231;SDS011;62590;52.430;4.902;2022-11-10T02:09:13;29.35;;;2.70;;
74231;SDS011;62590;52.430;4.902;2022-11-10T02:11:39;32.50;;;2.97;;
74231;SDS011;62590;52.430;4.902;2022-11-10T02:14:06;18.20;;;2.53;;
74231;SDS011;62590;52.430;4.902;2022-11-10T02:16:32;28.23;;;2.83;;
74231;SDS011;62590;52.430;4.902;2022-11-10T02:19:10;21.85;;;2.67;;
74231;SDS011;62590;52.430;4.902;2022-11-10T02:21:37;17.20;;;2.90;;
74231;SDS011;62590;52.430;4.902;2022-11-10T02:24:03;32.38;;;2.78;;
74231;SDS011;62590;52.430;4.902;2022-11-10T02:26:28;28.98;;;3.00;;
74231;SDS011;62590;52.430;4.902;2022-11-10T02:28:54;17.98;;;2.42;;
74231;SDS011;62590;52.430;4.902;2022-11-10T02:31:20;22.05;;;3.30;;
74231;SDS011;62590;52.430;4.902;2022-11-10T02:33:45;23.00;;;2.85;;
74231;SDS011;62590;52.430;4.902;2022-11-10T02:36:11;26.60;;;4.30;;
74231;SDS011;62590;52.430;4.902;2022-11-10T02:38:36;21.38;;;3.30;;
74231;SDS011;62590;52.430;4.902;2022-11-10T02:41:02;22.10;;;2.97;;
74231;SDS011;62590;52.430;4.902;2022-11-10T02:43:27;24.52;;;3.35;;
74231;SDS011;62590;52.430;4.902;2022-11-10T02:45:53;31.40;;;3.63;;
74231;SDS011;62590;52.430;4.902;2022-11-10T02:48:18;21.73;;;3.75;;
74231;SDS011;62590;52.430;4.902;2022-11-10T02:50:44;37.30;;;5.57;;
74231;SDS011;62590;52.430;4.902;2022-11-10T02:53:09;26.88;;;4.50;;
74231;SDS011;62590;52.430;4.902;2022-11-10T02:55:35;28.15;;;3.63;;
74231;SDS011;62590;52.430;4.902;2022-11-10T02:58:00;22.80;;;3.47;;
74231;SDS011;62590;52.430;4.902;2022-11-10T03:00:26;26.63;;;3.15;;
74231;SDS011;62590;52.430;4.902;2022-11-10T03:02:55;18.38;;;3.03;;
74231;SDS011;62590;52.430;4.902;2022-11-10T03:05:21;44.45;;;3.53;;
74231;SDS011;62590;52.430;4.902;2022-11-10T03:07:53;27.42;;;3.05;;
74231;SDS011;62590;52.430;4.902;2022-11-10T03:10:20;29.42;;;3.15;;
74231;SDS011;62590;52.430;4.902;2022-11-10T03:12:46;23.88;;;3.55;;
74231;SDS011;62590;52.430;4.902;2022-11-10T03:15:12;31.60;;;4.70;;
74231;SDS011;62590;52.430;4.902;2022-11-10T03:17:38;40.42;;;4.25;;
74231;SDS011;62590;52.430;4.902;2022-11-10T03:20:04;31.00;;;4.00;;
74231;SDS011;62590;52.430;4.902;2022-11-10T03:22:29;33.03;;;4.60;;
74231;SDS011;62590;52.430;4.902;2022-11-10T03:24:55;37.45;;;4.60;;
74231;SDS011;62590;52.430;4.902;2022-11-10T03:27:20;27.75;;;4.35;;
74231;SDS011;62590;52.430;4.902;2022-11-10T03:29:45;25.52;;;3.63;;
74231;SDS011;62590;52.430;4.902;2022-11-10T03:32:11;25.85;;;3.78;;
74231;SDS011;62590;52.430;4.902;2022-11-10T03:34:36;33.35;;;4.80;;
74231;SDS011;62590;52.430;4.902;2022-11-10T03:37:01;30.40;;;3.55;;
74231;SDS011;62590;52.430;4.902;2022-11-10T03:39:27;49.42;;;4.57;;
74231;SDS011;62590;52.430;4.902;2022-11-10T03:41:52;25.30;;;3.08;;
74231;SDS011;62590;52.430;4.902;2022-11-10T03:44:17;38.47;;;3.45;;
74231;SDS011;62590;52.430;4.902;2022-11-10T03:46:43;38.08;;;5.22;;
74231;SDS011;62590;52.430;4.902;2022-11-10T03:49:08;28.73;;;3.15;;
74231;SDS011;62590;52.430;4.902;2022-11-10T03:51:33;27.73;;;3.13;;
74231;SDS011;62590;52.430;4.902;2022-11-10T03:53:59;26.65;;;2.85;;
74231;SDS011;62590;52.430;4.902;2022-11-10T03:56:24;31.77;;;4.05;;
74231;SDS011;62590;52.430;4.902;2022-11-10T03:58:49;21.73;;;3.13;;
74231;SDS011;62590;52.430;4.902;2022-11-10T04:01:15;27.42;;;2.95;;
74231;SDS011;62590;52.430;4.902;2022-11-10T04:03:40;31.95;;;3.15;;
74231;SDS011;62590;52.430;4.902;2022-11-10T04:06:07;32.15;;;3.67;;
74231;SDS011;62590;52.430;4.902;2022-11-10T04:08:53;31.05;;;3.97;;
74231;SDS011;62590;52.430;4.902;2022-11-10T04:11:24;32.97;;;3.05;;
74231;SDS011;62590;52.430;4.902;2022-11-10T04:16:53;34.22;;;3.13;;
74231;SDS011;62590;52.430;4.902;2022-11-10T04:19:19;21.17;;;3.80;;
74231;SDS011;62590;52.430;4.902;2022-11-10T04:21:45;29.27;;;3.28;;
74231;SDS011;62590;52.430;4.902;2022-11-10T04:24:10;21.08;;;2.95;;
74231;SDS011;62590;52.430;4.902;2022-11-10T04:26:36;22.63;;;3.78;;
74231;SDS011;62590;52.430;4.902;2022-11-10T04:29:03;23.70;;;3.30;;
74231;SDS011;62590;52.430;4.902;2022-11-10T04:31:31;34.53;;;2.90;;
74231;SDS011;62590;52.430;4.902;2022-11-10T04:33:58;36.85;;;3.13;;
74231;SDS011;62590;52.430;4.902;2022-11-10T04:36:28;43.13;;;5.10;;
74231;SDS011;62590;52.430;4.902;2022-11-10T04:38:54;25.35;;;4.43;;
74231;SDS011;62590;52.430;4.902;2022-11-10T04:41:20;22.10;;;2.58;;
74231;SDS011;62590;52.430;4.902;2022-11-10T04:43:46;25.60;;;2.72;;
74231;SDS011;62590;52.430;4.902;2022-11-10T04:48:51;26.13;;;3.03;;
74231;SDS011;62590;52.430;4.902;2022-11-10T04:51:17;22.50;;;2.70;;
74231;SDS011;62590;52.430;4.902;2022-11-10T04:53:43;22.55;;;2.78;;
74231;SDS011;62590;52.430;4.902;2022-11-10T04:56:15;22.63;;;3.33;;
74231;SDS011;62590;52.430;4.902;2022-11-10T04:58:46;25.20;;;3.72;;
74231;SDS011;62590;52.430;4.902;2022-11-10T05:01:16;33.63;;;3.65;;
74231;SDS011;62590;52.430;4.902;2022-11-10T05:03:43;31.98;;;3.03;;
74231;SDS011;62590;52.430;4.902;2022-11-10T05:06:09;30.75;;;4.10;;
74231;SDS011;62590;52.430;4.902;2022-11-10T05:08:35;26.52;;;3.42;;
74231;SDS011;62590;52.430;4.902;2022-11-10T05:11:01;27.90;;;3.55;;
74231;SDS011;62590;52.430;4.902;2022-11-10T05:13:27;24.30;;;4.30;;
74231;SDS011;62590;52.430;4.902;2022-11-10T05:15:53;27.52;;;3.20;;
74231;SDS011;62590;52.430;4.902;2022-11-10T05:18:18;21.10;;;2.67;;
74231;SDS011;62590;52.430;4.902;2022-11-10T05:20:44;29.17;;;3.58;;
74231;SDS011;62590;52.430;4.902;2022-11-10T05:23:09;29.40;;;3.33;;
74231;SDS011;62590;52.430;4.902;2022-11-10T05:25:53;29.67;;;3.92;;
74231;SDS011;62590;52.430;4.902;2022-11-10T05:28:18;25.40;;;3.97;;
74231;SDS011;62590;52.430;4.902;2022-11-10T05:30:44;24.88;;;3.10;;
74231;SDS011;62590;52.430;4.902;2022-11-10T05:33:09;30.15;;;3.33;;
74231;SDS011;62590;52.430;4.902;2022-11-10T05:35:35;28.10;;;3.72;;
74231;SDS011;62590;52.430;4.902;2022-11-10T05:38:01;30.95;;;3.78;;
74231;SDS011;62590;52.430;4.902;2022-11-10T05:40:28;24.13;;;3.35;;
74231;SDS011;62590;52.430;4.902;2022-11-10T05:42:53;35.17;;;4.18;;
74231;SDS011;62590;52.430;4.902;2022-11-10T05:45:19;37.97;;;3.45;;
74231;SDS011;62590;52.430;4.902;2022-11-10T05:47:47;19.08;;;3.53;;
74231;SDS011;62590;52.430;4.902;2022-11-10T05:50:13;18.55;;;2.35;;
74231;SDS011;62590;52.430;4.902;2022-11-10T05:52:43;26.38;;;4.05;;
74231;SDS011;62590;52.430;4.902;2022-11-10T05:55:10;25.20;;;3.80;;
74231;SDS011;62590;52.430;4.902;2022-11-10T05:57:36;33.85;;;4.10;;
74231;SDS011;62590;52.430;4.902;2022-11-10T06:00:03;28.45;;;3.90;;
74231;SDS011;62590;52.430;4.902;2022-11-10T06:02:29;26.23;;;3.47;;
74231;SDS011;62590;52.430;4.902;2022-11-10T06:04:54;32.17;;;4.43;;
74231;SDS011;62590;52.430;4.902;2022-11-10T06:07:20;25.02;;;4.10;;
74231;SDS011;62590;52.430;4.902;2022-11-10T06:09:45;30.85;;;4.30;;
74231;SDS011;62590;52.430;4.902;2022-11-10T06:12:12;24.33;;;4.57;;
74231;SDS011;62590;52.430;4.902;2022-11-10T06:14:38;30.02;;;4.72;;
74231;SDS011;62590;52.430;4.902;2022-11-10T06:17:03;28.48;;;4.88;;
74231;SDS011;62590;52.430;4.902;2022-11-10T06:19:29;39.60;;;5.28;;
74231;SDS011;62590;52.430;4.902;2022-11-10T06:21:54;29.20;;;4.07;;
74231;SDS011;62590;52.430;4.902;2022-11-10T06:24:19;43.17;;;5.63;;
74231;SDS011;62590;52.430;4.902;2022-11-10T06:26:45;33.13;;;5.30;;
74231;SDS011;62590;52.430;4.902;2022-11-10T06:29:10;25.10;;;4.05;;
74231;SDS011;62590;52.430;4.902;2022-11-10T06:31:35;37.70;;;4.82;;
74231;SDS011;62590;52.430;4.902;2022-11-10T06:34:01;31.60;;;4.10;;
74231;SDS011;62590;52.430;4.902;2022-11-10T06:36:27;36.47;;;4.85;;
74231;SDS011;62590;52.430;4.902;2022-11-10T06:38:52;33.63;;;5.15;;
74231;SDS011;62590;52.430;4.902;2022-11-10T06:41:17;22.40;;;3.70;;
74231;SDS011;62590;52.430;4.902;2022-11-10T06:43:42;33.88;;;4.57;;
74231;SDS011;62590;52.430;4.902;2022-11-10T06:46:08;21.95;;;2.63;;
74231;SDS011;62590;52.430;4.902;2022-11-10T06:48:33;24.08;;;4.95;;
74231;SDS011;62590;52.430;4.902;2022-11-10T06:50:59;37.95;;;5.00;;
74231;SDS011;62590;52.430;4.902;2022-11-10T06:53:25;31.67;;;4.05;;
74231;SDS011;62590;52.430;4.902;2022-11-10T06:55:50;33.42;;;4.60;;
74231;SDS011;62590;52.430;4.902;2022-11-10T06:58:17;30.85;;;4.22;;
74231;SDS011;62590;52.430;4.902;2022-11-10T07:00:43;27.05;;;3.17;;
74231;SDS011;62590;52.430;4.902;2022-11-10T07:03:09;36.30;;;3.60;;
74231;SDS011;62590;52.430;4.902;2022-11-10T07:05:37;25.70;;;4.68;;
74231;SDS011;62590;52.430;4.902;2022-11-10T07:10:29;32.53;;;4.65;;
74231;SDS011;62590;52.430;4.902;2022-11-10T07:12:58;32.30;;;4.55;;
74231;SDS011;62590;52.430;4.902;2022-11-10T07:15:25;30.58;;;3.95;;
74231;SDS011;62590;52.430;4.902;2022-11-10T07:17:50;28.80;;;4.45;;
74231;SDS011;62590;52.430;4.902;2022-11-10T07:20:16;24.33;;;4.53;;
74231;SDS011;62590;52.430;4.902;2022-11-10T07:22:41;42.72;;;7.20;;
74231;SDS011;62590;52.430;4.902;2022-11-10T07:25:07;34.25;;;5.03;;
74231;SDS011;62590;52.430;4.902;2022-11-10T07:27:33;26.02;;;4.70;;
74231;SDS011;62590;52.430;4.902;2022-11-10T07:29:58;25.45;;;3.47;;
74231;SDS011;62590;52.430;4.902;2022-11-10T07:32:23;26.27;;;4.78;;
74231;SDS011;62590;52.430;4.902;2022-11-10T07:34:48;29.02;;;5.13;;
74231;SDS011;62590;52.430;4.902;2022-11-10T07:37:14;29.73;;;4.97;;
74231;SDS011;62590;52.430;4.902;2022-11-10T07:39:39;23.95;;;4.07;;
74231;SDS011;62590;52.430;4.902;2022-11-10T07:42:04;31.02;;;4.18;;
74231;SDS011;62590;52.430;4.902;2022-11-10T07:44:30;33.45;;;4.63;;
74231;SDS011;62590;52.430;4.902;2022-11-10T07:46:55;30.98;;;4.20;;
74231;SDS011;62590;52.430;4.902;2022-11-10T07:49:21;35.13;;;5.22;;
74231;SDS011;62590;52.430;4.902;2022-11-10T07:51:47;37.00;;;4.85;;
74231;SDS011;62590;52.430;4.902;2022-11-10T07:54:12;35.28;;;4.43;;
74231;SDS011;62590;52.430;4.902;2022-11-10T07:56:37;32.28;;;5.40;;
74231;SDS011;62590;52.430;4.902;2022-11-10T07:59:03;25.98;;;4.18;;
74231;SDS011;62590;52.430;4.902;2022-11-10T08:01:28;18.85;;;4.95;;
74231;SDS011;62590;52.430;4.902;2022-11-10T08:03:54;38.13;;;4.82;;
74231;SDS011;62590;52.430;4.902;2022-11-10T08:06:19;32.65;;;5.10;;
74231;SDS011;62590;52.430;4.902;2022-11-10T08:08:45;38.97;;;5.45;;
74231;SDS011;62590;52.430;4.902;2022-11-10T08:11:11;40.67;;;4.47;;
74231;SDS011;62590;52.430;4.902;2022-11-10T08:13:36;38.08;;;5.95;;
74231;SDS011;62590;52.430;4.902;2022-11-10T08:16:03;42.00;;;5.78;;
74231;SDS011;62590;52.430;4.902;2022-11-10T08:18:29;31.55;;;5.72;;
74231;SDS011;62590;52.430;4.902;2022-11-10T08:20:54;32.10;;;4.93;;
74231;SDS011;62590;52.430;4.902;2022-11-10T08:23:19;27.95;;;4.80;;
74231;SDS011;62590;52.430;4.902;2022-11-10T08:25:45;39.28;;;4.95;;
74231;SDS011;62590;52.430;4.902;2022-11-10T08:28:12;21.92;;;4.32;;
74231;SDS011;62590;52.430;4.902;2022-11-10T08:30:40;31.20;;;4.82;;
74231;SDS011;62590;52.430;4.902;2022-11-10T08:33:08;27.65;;;4.75;;
74231;SDS011;62590;52.430;4.902;2022-11-10T08:35:36;39.25;;;5.88;;
74231;SDS011;62590;52.430;4.902;2022-11-10T08:38:04;34.33;;;4.55;;
74231;SDS011;62590;52.430;4.902;2022-11-10T08:40:31;43.53;;;5.70;;
74231;SDS011;62590;52.430;4.902;2022-11-10T08:43:00;33.88;;;6.85;;
74231;SDS011;62590;52.430;4.902;2022-11-10T08:45:26;28.88;;;5.80;;
74231;SDS011;62590;52.430;4.902;2022-11-10T08:47:58;23.92;;;5.28;;
74231;SDS011;62590;52.430;4.902;2022-11-10T08:50:25;28.63;;;4.60;;
74231;SDS011;62590;52.430;4.902;2022-11-10T08:52:52;36.17;;;5.43;;
74231;SDS011;62590;52.430;4.902;2022-11-10T08:55:17;28.23;;;3.97;;
74231;SDS011;62590;52.430;4.902;2022-11-10T08:57:44;38.97;;;4.55;;
74231;SDS011;62590;52.430;4.902;2022-11-10T09:00:10;33.33;;;4.53;;
74231;SDS011;62590;52.430;4.902;2022-11-10T09:02:37;27.92;;;4.57;;
74231;SDS011;62590;52.430;4.902;2022-11-10T09:05:02;42.75;;;4.78;;
74231;SDS011;62590;52.430;4.902;2022-11-10T09:07:28;30.80;;;5.45;;
74231;SDS011;62590;52.430;4.902;2022-11-10T09:09:55;33.42;;;6.40;;
74231;SDS011;62590;52.430;4.902;2022-11-10T09:12:20;33.72;;;4.88;;
74231;SDS011;62590;52.430;4.902;2022-11-10T09:14:45;34.22;;;4.78;;
74231;SDS011;62590;52.430;4.902;2022-11-10T09:17:11;36.97;;;4.85;;
74231;SDS011;62590;52.430;4.902;2022-11-10T09:19:37;29.73;;;4.80;;
74231;SDS011;62590;52.430;4.902;2022-11-10T09:22:02;32.20;;;5.60;;
74231;SDS011;62590;52.430;4.902;2022-11-10T09:24:28;26.08;;;4.22;;
74231;SDS011;62590;52.430;4.902;2022-11-10T09:26:53;36.67;;;5.95;;
74231;SDS011;62590;52.430;4.902;2022-11-10T09:29:19;34.13;;;5.05;;
74231;SDS011;62590;52.430;4.902;2022-11-10T09:31:45;27.27;;;4.88;;
74231;SDS011;62590;52.430;4.902;2022-11-10T09:34:10;33.63;;;4.22;;
74231;SDS011;62590;52.430;4.902;2022-11-10T09:36:35;40.40;;;6.35;;
74231;SDS011;62590;52.430;4.902;2022-11-10T09:39:01;26.90;;;3.90;;
74231;SDS011;62590;52.430;4.902;2022-11-10T09:41:27;28.02;;;5.10;;
74231;SDS011;62590;52.430;4.902;2022-11-10T09:46:46;22.33;;;4.78;;
74231;SDS011;62590;52.430;4.902;2022-11-10T09:49:22;30.45;;;5.78;;
74231;SDS011;62590;52.430;4.902;2022-11-10T09:51:49;34.60;;;4.80;;
74231;SDS011;62590;52.430;4.902;2022-11-10T09:57:09;23.25;;;4.03;;
74231;SDS011;62590;52.430;4.902;2022-11-10T09:59:37;25.77;;;4.10;;
74231;SDS011;62590;52.430;4.902;2022-11-10T10:02:15;31.33;;;5.05;;
74231;SDS011;62590;52.430;4.902;2022-11-10T10:15:30;46.47;;;5.45;;
74231;SDS011;62590;52.430;4.902;2022-11-10T10:23:49;26.95;;;4.38;;
74231;SDS011;62590;52.430;4.902;2022-11-10T10:26:17;34.33;;;5.32;;
74231;SDS011;62590;52.430;4.902;2022-11-10T10:28:51;29.23;;;3.90;;
74231;SDS011;62590;52.430;4.902;2022-11-10T10:31:22;16.88;;;3.97;;
74231;SDS011;62590;52.430;4.902;2022-11-10T10:33:50;27.48;;;4.78;;
74231;SDS011;62590;52.430;4.902;2022-11-10T10:36:18;27.63;;;4.20;;
74231;SDS011;62590;52.430;4.902;2022-11-10T10:38:49;34.58;;;4.28;;
74231;SDS011;62590;52.430;4.902;2022-11-10T10:41:25;26.00;;;5.22;;
74231;SDS011;62590;52.430;4.902;2022-11-10T10:43:53;28.65;;;4.72;;
74231;SDS011;62590;52.430;4.902;2022-11-10T10:46:21;31.50;;;4.60;;
74231;SDS011;62590;52.430;4.902;2022-11-10T10:49:06;32.78;;;5.55;;
74231;SDS011;62590;52.430;4.902;2022-11-10T10:51:36;29.15;;;4.03;;
74231;SDS011;62590;52.430;4.902;2022-11-10T10:54:01;33.42;;;5.03;;
74231;SDS011;62590;52.430;4.902;2022-11-10T10:56:27;33.05;;;6.13;;
74231;SDS011;62590;52.430;4.902;2022-11-10T10:58:57;31.95;;;4.72;;
74231;SDS011;62590;52.430;4.902;2022-11-10T11:01:33;29.58;;;3.60;;
74231;SDS011;62590;52.430;4.902;2022-11-10T11:04:04;29.27;;;4.82;;
74231;SDS011;62590;52.430;4.902;2022-11-10T11:07:00;33.15;;;4.57;;
74231;SDS011;62590;52.430;4.902;2022-11-10T11:09:50;37.88;;;4.35;;
74231;SDS011;62590;52.430;4.902;2022-11-10T11:14:44;37.72;;;3.70;;
74231;SDS011;62590;52.430;4.902;2022-11-10T11:17:16;32.13;;;4.38;;
74231;SDS011;62590;52.430;4.902;2022-11-10T11:19:43;32.83;;;3.97;;
74231;SDS011;62590;52.430;4.902;2022-11-10T11:22:23;33.25;;;4.63;;
74231;SDS011;62590;52.430;4.902;2022-11-10T11:30:25;30.15;;;4.30;;
74231;SDS011;62590;52.430;4.902;2022-11-10T11:40:46;32.28;;;3.97;;
74231;SDS011;62590;52.430;4.902;2022-11-10T11:54:37;24.38;;;3.33;;
74231;SDS011;62590;52.430;4.902;2022-11-10T11:57:55;24.27;;;3.45;;
74231;SDS011;62590;52.430;4.902;2022-11-10T12:00:08;26.65;;;3.63;;
74231;SDS011;62590;52.430;4.902;2022-11-10T12:02:46;27.50;;;4.25;;
74231;SDS011;62590;52.430;4.902;2022-11-10T12:06:01;24.60;;;3.67;;
74231;SDS011;62590;52.430;4.902;2022-11-10T12:11:04;28.08;;;3.65;;
74231;SDS011;62590;52.430;4.902;2022-11-10T12:16:08;31.73;;;3.97;;
74231;SDS011;62590;52.430;4.902;2022-11-10T12:21:31;22.45;;;3.00;;
74231;SDS011;62590;52.430;4.902;2022-11-10T12:24:39;32.60;;;3.20;;
74231;SDS011;62590;52.430;4.902;2022-11-10T12:27:17;31.60;;;4.25;;
74231;SDS011;62590;52.430;4.902;2022-11-10T12:30:03;27.35;;;4.43;;
74231;SDS011;62590;52.430;4.902;2022-11-10T12:32:38;21.90;;;3.28;;
74231;SDS011;62590;52.430;4.902;2022-11-10T12:38:10;34.60;;;3.63;;
74231;SDS011;62590;52.430;4.902;2022-11-10T12:41:04;26.13;;;3.97;;
74231;SDS011;62590;52.430;4.902;2022-11-10T12:46:28;22.80;;;3.35;;
74231;SDS011;62590;52.430;4.902;2022-11-10T12:52:13;38.22;;;4.05;;
74231;SDS011;62590;52.430;4.902;2022-11-10T12:54:26;27.75;;;3.50;;
74231;SDS011;62590;52.430;4.902;2022-11-10T12:56:53;22.70;;;2.90;;
74231;SDS011;62590;52.430;4.902;2022-11-10T12:59:27;23.85;;;3.15;;
74231;SDS011;62590;52.430;4.902;2022-11-10T13:01:57;25.15;;;3.00;;
74231;SDS011;62590;52.430;4.902;2022-11-10T13:04:29;25.90;;;3.45;;
74231;SDS011;62590;52.430;4.902;2022-11-10T13:06:56;21.20;;;4.03;;
74231;SDS011;62590;52.430;4.902;2022-11-10T13:09:25;29.00;;;4.18;;
74231;SDS011;62590;52.430;4.902;2022-11-10T13:14:35;23.10;;;3.90;;
74231;SDS011;62590;52.430;4.902;2022-11-10T13:17:01;24.20;;;3.58;;
74231;SDS011;62590;52.430;4.902;2022-11-10T13:24:24;25.20;;;3.40;;
74231;SDS011;62590;52.430;4.902;2022-11-10T13:26:54;20.13;;;3.03;;
74231;SDS011;62590;52.430;4.902;2022-11-10T13:34:48;22.02;;;3.70;;
74231;SDS011;62590;52.430;4.902;2022-11-10T13:42:40;26.35;;;3.20;;
74231;SDS011;62590;52.430;4.902;2022-11-10T13:59:29;27.20;;;3.85;;
74231;SDS011;62590;52.430;4.902;2022-11-10T14:05:00;34.13;;;3.72;;
74231;SDS011;62590;52.430;4.902;2022-11-10T14:07:33;19.67;;;1.90;;
74231;SDS011;62590;52.430;4.902;2022-11-10T14:10:06;15.93;;;2.75;;
74231;SDS011;62590;52.430;4.902;2022-11-10T14:12:47;16.98;;;3.22;;
74231;SDS011;62590;52.430;4.902;2022-11-10T14:15:18;14.55;;;2.90;;
74231;SDS011;62590;52.430;4.902;2022-11-10T14:17:49;16.48;;;3.00;;
74231;SDS011;62590;52.430;4.902;2022-11-10T14:23:18;20.15;;;2.90;;
74231;SDS011;62590;52.430;4.902;2022-11-10T14:25:54;19.92;;;2.85;;
74231;SDS011;62590;52.430;4.902;2022-11-10T14:28:26;13.52;;;2.25;;
74231;SDS011;62590;52.430;4.902;2022-11-10T14:30:56;22.20;;;2.15;;
74231;SDS011;62590;52.430;4.902;2022-11-10T14:33:24;18.40;;;2.22;;
74231;SDS011;62590;52.430;4.902;2022-11-10T14:35:58;26.60;;;2.63;;
74231;SDS011;62590;52.430;4.902;2022-11-10T14:40:53;28.90;;;4.63;;
74231;SDS011;62590;52.430;4.902;2022-11-10T14:45:54;20.92;;;2.97;;
74231;SDS011;62590;52.430;4.902;2022-11-10T14:48:21;27.92;;;3.78;;
74231;SDS011;62590;52.430;4.902;2022-11-10T14:50:48;23.00;;;3.17;;
74231;SDS011;62590;52.430;4.902;2022-11-10T14:53:28;21.75;;;2.72;;
74231;SDS011;62590;52.430;4.902;2022-11-10T14:55:57;13.98;;;2.30;;
74231;SDS011;62590;52.430;4.902;2022-11-10T14:58:25;23.65;;;3.30;;
74231;SDS011;62590;52.430;4.902;2022-11-10T15:00:56;24.10;;;3.30;;
74231;SDS011;62590;52.430;4.902;2022-11-10T15:03:27;23.90;;;2.50;;
74231;SDS011;62590;52.430;4.902;2022-11-10T15:05:59;20.55;;;3.10;;
74231;SDS011;62590;52.430;4.902;2022-11-10T15:08:27;17.40;;;2.50;;
74231;SDS011;62590;52.430;4.902;2022-11-10T15:10:53;18.25;;;2.63;;
74231;SDS011;62590;52.430;4.902;2022-11-10T15:16:37;17.63;;;3.65;;
74231;SDS011;62590;52.430;4.902;2022-11-10T15:18:46;22.95;;;2.65;;
74231;SDS011;62590;52.430;4.902;2022-11-10T15:21:15;23.35;;;2.85;;
74231;SDS011;62590;52.430;4.902;2022-11-10T15:23:43;22.92;;;3.38;;
74231;SDS011;62590;52.430;4.902;2022-11-10T15:28:50;35.78;;;3.00;;
74231;SDS011;62590;52.430;4.902;2022-11-10T15:31:29;27.77;;;4.00;;
74231;SDS011;62590;52.430;4.902;2022-11-10T15:33:58;11.65;;;2.33;;
74231;SDS011;62590;52.430;4.902;2022-11-10T15:36:29;13.57;;;2.53;;
74231;SDS011;62590;52.430;4.902;2022-11-10T15:41:35;21.45;;;3.45;;
74231;SDS011;62590;52.430;4.902;2022-11-10T15:44:20;23.55;;;3.08;;
74231;SDS011;62590;52.430;4.902;2022-11-10T15:46:50;17.25;;;2.20;;
74231;SDS011;62590;52.430;4.902;2022-11-10T15:49:21;29.30;;;2.72;;
74231;SDS011;62590;52.430;4.902;2022-11-10T15:51:48;15.68;;;2.03;;
74231;SDS011;62590;52.430;4.902;2022-11-10T15:54:21;24.45;;;2.90;;
74231;SDS011;62590;52.430;4.902;2022-11-10T15:56:48;17.25;;;2.50;;
74231;SDS011;62590;52.430;4.902;2022-11-10T15:59:13;26.23;;;2.25;;
74231;SDS011;62590;52.430;4.902;2022-11-10T16:01:39;14.65;;;2.22;;
74231;SDS011;62590;52.430;4.902;2022-11-10T16:04:08;26.38;;;2.65;;
74231;SDS011;62590;52.430;4.902;2022-11-10T16:06:34;22.58;;;2.67;;
74231;SDS011;62590;52.430;4.902;2022-11-10T16:09:00;15.68;;;2.15;;
74231;SDS011;62590;52.430;4.902;2022-11-10T16:11:25;15.60;;;2.88;;
74231;SDS011;62590;52.430;4.902;2022-11-10T16:13:51;15.63;;;3.40;;
74231;SDS011;62590;52.430;4.902;2022-11-10T16:16:18;15.95;;;2.40;;
74231;SDS011;62590;52.430;4.902;2022-11-10T16:18:44;18.75;;;3.70;;
74231;SDS011;62590;52.430;4.902;2022-11-10T16:21:14;20.42;;;2.63;;
74231;SDS011;62590;52.430;4.902;2022-11-10T16:23:44;18.60;;;2.90;;
74231;SDS011;62590;52.430;4.902;2022-11-10T16:26:10;11.85;;;2.10;;
74231;SDS011;62590;52.430;4.902;2022-11-10T16:28:38;14.73;;;2.47;;
74231;SDS011;62590;52.430;4.902;2022-11-10T16:31:07;22.23;;;2.95;;
74231;SDS011;62590;52.430;4.902;2022-11-10T16:33:33;22.70;;;2.75;;
74231;SDS011;62590;52.430;4.902;2022-11-10T16:35:59;15.85;;;2.92;;
74231;SDS011;62590;52.430;4.902;2022-11-10T16:38:24;17.35;;;2.38;;
74231;SDS011;62590;52.430;4.902;2022-11-10T16:40:58;13.65;;;2.40;;
74231;SDS011;62590;52.430;4.902;2022-11-10T16:43:25;16.27;;;2.90;;
74231;SDS011;62590;52.430;4.902;2022-11-10T16:45:52;14.63;;;2.30;;